createdAt,value
2023-05-16T00:01:31.247Z,13.00
2023-05-16T00:04:04.531Z,13.10
2023-05-16T00:06:37.303Z,13.00
2023-05-16T00:09:10.086Z,13.00
2023-05-16T00:11:42.582Z,13.00
2023-05-16T00:14:15.637Z,13.00
2023-05-16T00:16:48.245Z,13.00
2023-05-16T00:19:21.202Z,13.00
2023-05-16T00:21:53.798Z,13.00
2023-05-16T00:24:26.610Z,13.00
2023-05-16T00:26:59.134Z,13.00
2023-05-16T00:29:32.085Z,13.00
2023-05-16T00:32:04.843Z,13.00
2023-05-16T00:34:37.845Z,13.00
2023-05-16T00:37:14.018Z,13.10
2023-05-16T00:39:49.692Z,13.10
2023-05-16T00:42:22.389Z,13.00
2023-05-16T00:44:55.753Z,13.00
2023-05-16T00:47:31.328Z,13.00
2023-05-16T00:50:04.615Z,13.00
2023-05-16T00:52:37.356Z,13.00
2023-05-16T00:55:11.132Z,13.00
2023-05-16T00:57:44.054Z,12.90
2023-05-16T01:00:19.994Z,13.00
2023-05-16T01:02:53.785Z,13.00
2023-05-16T01:05:27.897Z,12.90
2023-05-16T01:08:01.086Z,12.90
2023-05-16T01:10:57.211Z,13.00
2023-05-16T01:14:05.091Z,12.90
2023-05-16T01:16:47.272Z,12.90
2023-05-16T01:19:50.945Z,12.90
2023-05-16T01:22:49.155Z,12.90
2023-05-16T01:26:09.935Z,12.90
2023-05-16T01:28:46.615Z,12.80
2023-05-16T01:31:22.397Z,12.90
2023-05-16T01:33:55.796Z,12.80
2023-05-16T01:36:47.225Z,12.80
2023-05-16T01:39:24.696Z,12.80
2023-05-16T01:42:11.851Z,12.80
2023-05-16T01:45:00.327Z,12.70
2023-05-16T01:47:38.631Z,12.80
2023-05-16T01:50:19.605Z,12.80
2023-05-16T01:52:58.630Z,12.70
2023-05-16T01:55:49.001Z,12.70
2023-05-16T01:58:26.918Z,12.70
2023-05-16T02:01:04.991Z,12.70
2023-05-16T02:03:38.347Z,12.70
2023-05-16T02:06:14.265Z,12.70
2023-05-16T02:08:49.967Z,12.70
2023-05-16T02:11:23.363Z,12.60
2023-05-16T02:13:56.008Z,12.70
2023-05-16T02:16:31.619Z,12.60
2023-05-16T02:19:23.948Z,12.60
2023-05-16T02:21:56.945Z,12.60
2023-05-16T02:24:29.714Z,12.60
2023-05-16T02:27:02.696Z,12.60
2023-05-16T02:29:35.449Z,12.50
2023-05-16T02:32:11.904Z,12.50
2023-05-16T02:34:44.629Z,12.50
2023-05-16T02:37:20.329Z,12.50
2023-05-16T02:39:53.237Z,12.50
2023-05-16T02:42:28.170Z,12.40
2023-05-16T02:45:03.473Z,12.40
2023-05-16T02:47:39.923Z,12.40
2023-05-16T02:50:12.797Z,12.40
2023-05-16T02:52:52.295Z,12.40
2023-05-16T02:55:25.050Z,12.40
2023-05-16T02:57:59.166Z,12.40
2023-05-16T03:00:35.395Z,12.40
2023-05-16T03:03:08.792Z,12.40
2023-05-16T03:05:46.729Z,12.30
2023-05-16T03:08:22.938Z,12.30
2023-05-16T03:10:55.832Z,12.30
2023-05-16T03:13:36.992Z,12.30
2023-05-16T03:16:09.843Z,12.30
2023-05-16T03:18:43.867Z,12.30
2023-05-16T03:21:17.657Z,12.40
2023-05-16T03:23:55.468Z,12.40
2023-05-16T03:26:28.176Z,12.40
2023-05-16T03:29:01.337Z,12.40
2023-05-16T03:31:34.190Z,12.40
2023-05-16T03:34:08.010Z,12.30
2023-05-16T03:36:45.476Z,12.30
2023-05-16T03:39:18.566Z,12.20
2023-05-16T03:41:52.463Z,12.20
2023-05-16T03:44:29.246Z,12.30
2023-05-16T03:47:01.877Z,12.30
2023-05-16T03:49:37.527Z,12.30
2023-05-16T03:52:12.582Z,12.40
2023-05-16T03:54:51.708Z,12.40
2023-05-16T03:57:24.322Z,12.40
2023-05-16T04:00:01.206Z,12.30
2023-05-16T04:02:36.419Z,12.30
2023-05-16T04:05:14.092Z,12.40
2023-05-16T04:07:46.879Z,12.40
2023-05-16T04:10:19.852Z,12.40
2023-05-16T04:12:55.564Z,12.30
2023-05-16T04:15:31.707Z,12.30
2023-05-16T04:18:07.317Z,12.30
2023-05-16T04:20:41.947Z,12.20
2023-05-16T04:23:14.755Z,12.40
2023-05-16T04:25:50.977Z,12.40
2023-05-16T04:28:23.753Z,12.40
2023-05-16T04:30:56.742Z,12.40
2023-05-16T04:33:32.409Z,12.40
2023-05-16T04:36:08.861Z,12.40
2023-05-16T04:38:42.073Z,12.40
2023-05-16T04:41:20.989Z,12.40
2023-05-16T04:44:01.773Z,12.50
2023-05-16T04:46:35.979Z,12.40
2023-05-16T04:49:09.030Z,12.50
2023-05-16T04:52:15.506Z,12.50
2023-05-16T04:54:51.291Z,12.70
2023-05-16T04:57:26.021Z,12.70
2023-05-16T05:02:46.100Z,12.80
2023-05-16T05:05:33.388Z,12.80
2023-05-16T05:08:06.809Z,12.90
2023-05-16T05:10:40.177Z,12.90
2023-05-16T05:13:13.163Z,13.00
2023-05-16T05:15:45.856Z,13.10
2023-05-16T05:18:19.056Z,13.10
2023-05-16T05:21:02.602Z,13.20
2023-05-16T05:23:35.932Z,13.30
2023-05-16T05:26:08.610Z,13.30
2023-05-16T05:28:47.796Z,13.30
2023-05-16T05:31:23.587Z,13.30
2023-05-16T05:33:57.050Z,13.40
2023-05-16T05:36:29.730Z,13.40
2023-05-16T05:39:02.924Z,13.30
2023-05-16T05:41:36.025Z,13.30
2023-05-16T05:44:09.116Z,13.30
2023-05-16T05:46:42.249Z,13.40
2023-05-16T05:49:15.391Z,13.50
2023-05-16T05:51:48.119Z,13.60
2023-05-16T05:54:21.701Z,13.80
2023-05-16T05:56:54.432Z,14.10
2023-05-16T05:59:27.693Z,14.20
2023-05-16T06:02:00.546Z,14.30
2023-05-16T06:04:37.008Z,14.30
2023-05-16T06:07:09.822Z,14.30
2023-05-16T06:09:43.686Z,14.20
2023-05-16T06:12:17.049Z,14.30
2023-05-16T06:14:50.092Z,14.30
2023-05-16T06:17:22.996Z,14.20
2023-05-16T06:19:56.316Z,14.40
2023-05-16T06:22:28.886Z,14.50
2023-05-16T06:25:02.332Z,14.60
2023-05-16T06:27:35.037Z,14.50
2023-05-16T06:30:08.958Z,14.50
2023-05-16T06:32:41.914Z,14.70
2023-05-16T06:35:14.795Z,14.80
2023-05-16T06:37:47.528Z,14.90
2023-05-16T06:40:20.675Z,15.10
2023-05-16T06:42:53.440Z,15.40
2023-05-16T06:45:26.965Z,15.50
2023-05-16T06:48:00.005Z,15.50
2023-05-16T06:50:32.949Z,15.50
2023-05-16T06:53:07.414Z,15.50
2023-05-16T06:55:40.306Z,15.30
2023-05-16T06:58:13.041Z,15.40
2023-05-16T07:00:46.044Z,15.40
2023-05-16T07:03:18.789Z,15.50
2023-05-16T07:05:53.168Z,15.50
2023-05-16T07:08:26.233Z,15.60
2023-05-16T07:10:59.340Z,15.60
2023-05-16T07:13:33.225Z,15.90
2023-05-16T07:16:08.593Z,16.20
2023-05-16T07:18:41.240Z,16.60
2023-05-16T07:21:14.264Z,16.90
2023-05-16T07:23:46.922Z,17.00
2023-05-16T07:26:22.464Z,16.90
2023-05-16T07:28:55.435Z,16.50
2023-05-16T07:31:28.684Z,16.30
2023-05-16T07:34:01.618Z,16.10
2023-05-16T07:36:35.192Z,16.10
2023-05-16T07:39:07.788Z,16.10
2023-05-16T07:41:41.029Z,15.90
2023-05-16T07:44:13.694Z,15.70
2023-05-16T07:46:46.969Z,15.70
2023-05-16T07:49:19.697Z,15.70
2023-05-16T07:51:52.669Z,15.60
2023-05-16T07:54:25.387Z,15.50
2023-05-16T07:56:58.318Z,15.30
2023-05-16T07:59:31.094Z,15.30
2023-05-16T08:02:04.381Z,15.30
2023-05-16T08:04:37.759Z,15.60
2023-05-16T08:07:10.857Z,15.70
2023-05-16T08:09:43.512Z,15.80
2023-05-16T08:12:16.481Z,15.80
2023-05-16T08:14:49.197Z,15.80
2023-05-16T08:17:22.050Z,15.80
2023-05-16T08:19:54.767Z,15.80
2023-05-16T08:22:28.117Z,16.00
2023-05-16T08:25:00.886Z,16.20
2023-05-16T08:27:33.867Z,16.30
2023-05-16T08:30:07.148Z,16.50
2023-05-16T08:32:40.099Z,16.70
2023-05-16T08:35:13.234Z,16.80
2023-05-16T08:37:46.153Z,16.90
2023-05-16T08:40:19.543Z,17.10
2023-05-16T08:42:52.568Z,17.00
2023-05-16T08:45:26.098Z,17.10
2023-05-16T08:48:01.584Z,17.20
2023-05-16T08:50:35.784Z,17.30
2023-05-16T08:53:10.686Z,17.30
2023-05-16T08:55:45.759Z,17.40
2023-05-16T08:58:19.745Z,17.50
2023-05-16T09:00:52.523Z,17.60
2023-05-16T09:03:25.989Z,17.30
2023-05-16T09:05:58.753Z,17.00
2023-05-16T09:08:32.346Z,16.90
2023-05-16T09:11:05.023Z,17.10
2023-05-16T09:13:39.248Z,17.30
2023-05-16T09:16:18.127Z,17.50
2023-05-16T09:18:59.411Z,17.60
2023-05-16T09:21:34.505Z,17.50
2023-05-16T09:24:08.832Z,17.30
2023-05-16T09:26:41.503Z,17.10
2023-05-16T09:29:14.718Z,17.10
2023-05-16T09:31:49.534Z,17.20
2023-05-16T09:34:23.974Z,17.30
2023-05-16T09:36:56.731Z,17.40
2023-05-16T09:39:29.676Z,17.40
2023-05-16T09:42:02.404Z,17.30
2023-05-16T09:44:35.741Z,17.30
2023-05-16T09:47:08.499Z,17.30
2023-05-16T09:49:41.852Z,17.00
2023-05-16T09:52:14.913Z,17.00
2023-05-16T09:54:51.382Z,17.10
2023-05-16T09:57:26.399Z,17.30
2023-05-16T10:00:02.096Z,17.50
2023-05-16T10:02:36.389Z,17.70
2023-05-16T10:05:09.517Z,18.00
2023-05-16T10:07:44.343Z,18.30
2023-05-16T10:10:18.224Z,18.60
2023-05-16T10:12:57.591Z,18.70
2023-05-16T10:15:31.283Z,18.80
2023-05-16T10:18:04.913Z,18.60
2023-05-16T10:20:41.650Z,18.50
2023-05-16T10:23:19.767Z,18.60
2023-05-16T10:25:53.717Z,18.60
2023-05-16T10:28:27.104Z,18.80
2023-05-16T10:31:01.918Z,18.80
2023-05-16T10:33:36.347Z,19.00
2023-05-16T10:36:11.150Z,19.20
2023-05-16T10:38:45.317Z,19.20
2023-05-16T10:41:19.872Z,18.90
2023-05-16T10:43:59.482Z,18.90
2023-05-16T10:46:32.436Z,18.90
2023-05-16T10:49:42.927Z,19.10
2023-05-16T10:52:18.156Z,19.40
2023-05-16T10:54:55.971Z,19.60
2023-05-16T10:57:29.135Z,19.50
2023-05-16T11:00:03.949Z,19.40
2023-05-16T11:02:41.665Z,19.40
2023-05-16T11:05:19.341Z,19.30
2023-05-16T11:08:05.010Z,19.40
2023-05-16T11:10:37.739Z,19.70
2023-05-16T11:13:10.725Z,20.00
2023-05-16T11:15:43.399Z,20.10
2023-05-16T11:18:17.818Z,20.10
2023-05-16T11:20:53.156Z,19.90
2023-05-16T11:23:26.986Z,19.80
2023-05-16T11:26:01.066Z,19.40
2023-05-16T11:28:34.428Z,19.30
2023-05-16T11:31:07.149Z,19.50
2023-05-16T11:33:40.162Z,19.40
2023-05-16T11:36:16.289Z,19.50
2023-05-16T11:38:50.396Z,19.30
2023-05-16T11:41:23.220Z,19.50
2023-05-16T11:43:56.191Z,19.50
2023-05-16T11:46:28.861Z,19.60
2023-05-16T11:49:01.861Z,19.70
2023-05-16T11:51:34.992Z,19.70
2023-05-16T11:54:10.326Z,19.50
2023-05-16T11:56:42.974Z,19.50
2023-05-16T11:59:16.115Z,19.50
2023-05-16T12:01:49.422Z,19.50
2023-05-16T12:04:23.315Z,19.40
2023-05-16T12:07:01.682Z,19.10
2023-05-16T12:09:34.753Z,19.00
2023-05-16T12:12:07.949Z,19.00
2023-05-16T12:14:40.934Z,19.20
2023-05-16T12:17:13.613Z,19.40
2023-05-16T12:19:46.851Z,19.50
2023-05-16T12:22:20.485Z,19.70
2023-05-16T12:24:53.692Z,19.80
2023-05-16T12:27:27.723Z,19.90
2023-05-16T12:30:00.647Z,19.90
2023-05-16T12:32:38.122Z,20.00
2023-05-16T12:35:13.329Z,20.20
2023-05-16T12:37:46.222Z,20.10
2023-05-16T12:40:20.939Z,20.10
2023-05-16T12:42:54.170Z,20.20
2023-05-16T12:45:28.189Z,20.20
2023-05-16T12:48:13.451Z,20.20
2023-05-16T12:50:46.668Z,20.10
2023-05-16T12:53:19.574Z,20.00
2023-05-16T12:55:52.706Z,19.70
2023-05-16T12:58:25.354Z,19.60
2023-05-16T13:00:58.701Z,19.40
2023-05-16T13:03:33.801Z,19.30
2023-05-16T13:06:08.962Z,19.20
2023-05-16T13:08:41.656Z,19.10
2023-05-16T13:11:14.745Z,19.20
2023-05-16T13:13:47.494Z,19.30
2023-05-16T13:16:20.842Z,19.60
2023-05-16T13:18:53.860Z,19.80
2023-05-16T13:21:28.280Z,20.10
2023-05-16T13:24:01.108Z,20.40
2023-05-16T13:26:34.041Z,20.60
2023-05-16T13:29:06.663Z,20.70
2023-05-16T13:31:39.854Z,20.70
2023-05-16T13:34:12.929Z,20.60
2023-05-16T13:36:53.714Z,20.50
2023-05-16T13:39:27.478Z,20.60
2023-05-16T13:42:00.474Z,20.70
2023-05-16T13:44:33.442Z,20.60
2023-05-16T13:47:06.362Z,20.60
2023-05-16T13:49:39.203Z,20.60
2023-05-16T13:52:12.555Z,20.50
2023-05-16T13:54:45.214Z,20.60
2023-05-16T13:57:18.152Z,20.70
2023-05-16T14:02:26.976Z,21.10
2023-05-16T14:04:59.732Z,21.20
2023-05-16T14:07:32.688Z,21.40
2023-05-16T14:10:07.089Z,21.50
2023-05-16T14:12:40.757Z,21.60
2023-05-16T14:15:13.434Z,21.70
2023-05-16T14:17:46.641Z,21.90
2023-05-16T14:20:19.277Z,21.90
2023-05-16T14:22:52.209Z,22.00
2023-05-16T14:25:24.848Z,22.00
2023-05-16T14:27:57.759Z,22.00
2023-05-16T14:30:30.657Z,22.10
2023-05-16T14:33:03.891Z,22.10
2023-05-16T14:35:38.588Z,22.40
2023-05-16T14:38:11.567Z,22.50
2023-05-16T14:40:44.200Z,22.50
2023-05-16T14:43:17.518Z,22.60
2023-05-16T14:45:50.239Z,22.40
2023-05-16T14:48:23.197Z,22.00
2023-05-16T14:50:56.072Z,21.50
2023-05-16T14:53:28.953Z,21.00
2023-05-16T14:56:02.952Z,21.00
2023-05-16T14:58:35.898Z,21.20
2023-05-16T15:01:08.633Z,21.10
2023-05-16T15:06:17.414Z,20.50
2023-05-16T15:08:50.878Z,20.50
2023-05-16T15:11:23.815Z,20.50
2023-05-16T15:13:57.486Z,20.80
2023-05-16T15:16:31.370Z,20.70
2023-05-16T15:19:04.467Z,20.80
2023-05-16T15:21:37.246Z,20.60
2023-05-16T15:24:10.679Z,20.20
2023-05-16T15:26:43.384Z,19.80
2023-05-16T15:29:17.485Z,19.70
2023-05-16T15:31:50.109Z,19.80
2023-05-16T15:34:23.136Z,20.00
2023-05-16T15:36:55.930Z,19.80
2023-05-16T15:39:28.867Z,19.30
2023-05-16T15:42:10.600Z,19.10
2023-05-16T15:44:43.857Z,19.00
2023-05-16T15:47:16.537Z,18.90
2023-05-16T15:49:49.305Z,18.90
2023-05-16T15:52:22.940Z,18.80
2023-05-16T15:54:56.072Z,18.70
2023-05-16T15:57:28.628Z,18.70
2023-05-16T16:00:01.482Z,18.80
2023-05-16T16:02:34.111Z,18.80
2023-05-16T16:05:07.643Z,18.70
2023-05-16T16:07:40.221Z,18.60
2023-05-16T16:10:13.251Z,18.50
2023-05-16T16:13:01.635Z,18.50
2023-05-16T16:15:36.000Z,18.40
2023-05-16T16:18:09.347Z,18.30
2023-05-16T16:20:42.370Z,18.30
2023-05-16T16:23:15.109Z,18.10
2023-05-16T16:25:47.920Z,18.00
2023-05-16T16:28:22.514Z,17.90
2023-05-16T16:30:55.545Z,17.90
2023-05-16T16:33:28.207Z,17.80
2023-05-16T16:36:01.475Z,17.70
2023-05-16T16:38:34.337Z,17.60
2023-05-16T16:41:07.175Z,17.60
2023-05-16T16:43:40.191Z,17.50
2023-05-16T16:46:13.747Z,17.40
2023-05-16T16:48:46.343Z,17.30
2023-05-16T16:51:19.468Z,17.20
2023-05-16T16:53:52.692Z,17.10
2023-05-16T16:56:30.121Z,17.00
2023-05-16T16:59:02.765Z,17.00
2023-05-16T17:01:40.013Z,17.00
2023-05-16T17:04:13.358Z,16.90
2023-05-16T17:06:48.402Z,16.90
2023-05-16T17:09:22.110Z,16.80
2023-05-16T17:11:55.058Z,16.70
2023-05-16T17:14:27.910Z,16.70
2023-05-16T17:17:01.127Z,16.70
2023-05-16T17:19:33.909Z,16.70
2023-05-16T17:22:07.459Z,16.60
2023-05-16T17:24:42.605Z,16.50
2023-05-16T17:27:16.047Z,16.50
2023-05-16T17:29:48.753Z,16.50
2023-05-16T17:32:24.505Z,16.50
2023-05-16T17:34:57.554Z,16.40
2023-05-16T17:37:33.157Z,16.30
2023-05-16T17:40:07.973Z,16.30
2023-05-16T17:42:41.039Z,16.30
2023-05-16T17:45:15.659Z,16.20
2023-05-16T17:47:49.982Z,16.20
2023-05-16T17:50:25.905Z,16.20
2023-05-16T17:52:59.023Z,16.10
2023-05-16T17:55:34.005Z,16.10
2023-05-16T17:58:09.749Z,16.10
2023-05-16T18:00:42.461Z,16.00
2023-05-16T18:03:17.678Z,16.00
2023-05-16T18:05:51.247Z,16.00
2023-05-16T18:08:24.276Z,16.00
2023-05-16T18:10:58.515Z,15.90
2023-05-16T18:13:41.788Z,15.90
2023-05-16T18:16:16.920Z,15.90
2023-05-16T18:18:53.994Z,15.80
2023-05-16T18:21:26.904Z,15.80
2023-05-16T18:24:00.156Z,15.70
2023-05-16T18:26:32.817Z,15.70
2023-05-16T18:29:06.234Z,15.60
2023-05-16T18:31:41.353Z,15.60
2023-05-16T18:34:14.327Z,15.50
2023-05-16T18:36:48.573Z,15.40
2023-05-16T18:39:21.928Z,15.30
2023-05-16T18:41:55.636Z,15.30
2023-05-16T18:44:28.555Z,15.20
2023-05-16T18:47:01.211Z,15.20
2023-05-16T18:49:38.964Z,15.10
2023-05-16T18:52:12.032Z,15.10
2023-05-16T18:54:44.914Z,15.10
2023-05-16T18:57:17.861Z,15.00
2023-05-16T18:59:53.411Z,15.00
2023-05-16T19:02:37.908Z,15.00
2023-05-16T19:05:15.142Z,14.90
2023-05-16T19:07:48.207Z,14.80
2023-05-16T19:10:22.381Z,14.70
2023-05-16T19:12:55.240Z,14.60
2023-05-16T19:15:28.380Z,14.70
2023-05-16T19:18:01.572Z,14.60
2023-05-16T19:20:35.690Z,14.50
2023-05-16T19:23:08.482Z,14.40
2023-05-16T19:25:47.163Z,14.30
2023-05-16T19:28:19.776Z,14.30
2023-05-16T19:30:52.728Z,14.20
2023-05-16T19:33:25.302Z,14.20
2023-05-16T19:35:58.704Z,14.10
2023-05-16T19:38:31.428Z,14.00
2023-05-16T19:41:04.288Z,14.00
2023-05-16T19:43:36.821Z,14.00
2023-05-16T19:46:09.887Z,14.00
2023-05-16T19:48:42.803Z,13.90
2023-05-16T19:51:17.858Z,13.90
2023-05-16T19:53:54.249Z,13.90
2023-05-16T19:56:27.281Z,13.90
2023-05-16T19:58:59.783Z,13.90
2023-05-16T20:01:32.887Z,13.90
2023-05-16T20:04:06.354Z,13.90
2023-05-16T20:06:39.239Z,13.90
2023-05-16T20:09:11.832Z,13.80
2023-05-16T20:11:46.877Z,13.70
2023-05-16T20:14:19.392Z,13.70
2023-05-16T20:16:53.003Z,13.70
2023-05-16T20:19:26.001Z,13.60
2023-05-16T20:21:58.987Z,13.70
2023-05-16T20:24:31.531Z,13.60
2023-05-16T20:27:04.571Z,13.60
2023-05-16T20:29:38.716Z,13.60
2023-05-16T20:32:11.635Z,13.60
2023-05-16T20:34:44.149Z,13.60
2023-05-16T20:37:17.439Z,13.50
2023-05-16T20:39:50.170Z,13.40
2023-05-16T20:42:23.016Z,13.40
2023-05-16T20:44:55.640Z,13.40
2023-05-16T20:47:28.634Z,13.30
2023-05-16T20:50:01.176Z,13.20
2023-05-16T20:52:34.006Z,13.20
2023-05-16T20:55:06.978Z,13.20
2023-05-16T20:57:41.661Z,13.20
2023-05-16T21:00:15.944Z,13.20
2023-05-16T21:02:48.848Z,13.20
2023-05-16T21:05:35.261Z,13.20
2023-05-16T21:08:08.170Z,13.20
2023-05-16T21:10:40.734Z,13.20
2023-05-16T21:13:13.560Z,13.20
2023-05-16T21:15:46.078Z,13.20
2023-05-16T21:18:18.964Z,13.20
2023-05-16T21:20:51.513Z,13.30
2023-05-16T21:23:24.330Z,13.30
2023-05-16T21:25:56.860Z,13.30
2023-05-16T21:28:31.166Z,13.30
2023-05-16T21:31:05.284Z,13.30
2023-05-16T21:33:38.101Z,13.20
2023-05-16T21:36:10.650Z,13.20
2023-05-16T21:38:43.437Z,13.30
2023-05-16T21:41:16.091Z,13.30
2023-05-16T21:43:48.930Z,13.20
2023-05-16T21:46:21.592Z,13.20
2023-05-16T21:48:54.411Z,13.10
2023-05-16T21:51:27.005Z,13.00
2023-05-16T21:54:00.045Z,12.90
2023-05-16T21:56:33.268Z,12.80
2023-05-16T21:59:06.082Z,12.70
2023-05-16T22:01:38.616Z,12.60
2023-05-16T22:04:11.710Z,12.50
2023-05-16T22:06:44.315Z,12.50
2023-05-16T22:09:17.093Z,12.50
2023-05-16T22:11:49.608Z,12.50
2023-05-16T22:14:22.438Z,12.30
2023-05-16T22:16:54.952Z,12.40
2023-05-16T22:19:28.659Z,12.40
2023-05-16T22:22:02.724Z,12.30
2023-05-16T22:24:35.625Z,12.30
2023-05-16T22:27:08.202Z,12.20
2023-05-16T22:29:41.059Z,12.00
2023-05-16T22:32:13.918Z,11.90
2023-05-16T22:34:46.975Z,11.80
2023-05-16T22:37:19.553Z,11.80
2023-05-16T22:39:53.341Z,11.70
2023-05-16T22:42:26.040Z,11.70
2023-05-16T22:44:58.923Z,11.70
2023-05-16T22:47:31.461Z,11.60
2023-05-16T22:50:04.595Z,11.60
2023-05-16T22:52:41.841Z,11.60
2023-05-16T22:55:14.785Z,11.60
2023-05-16T22:57:47.306Z,11.50
2023-05-16T23:00:23.086Z,11.50
2023-05-16T23:02:55.751Z,11.50
2023-05-16T23:05:28.996Z,11.50
2023-05-16T23:08:03.217Z,11.40
2023-05-16T23:10:37.093Z,11.40
2023-05-16T23:13:09.632Z,11.40
2023-05-16T23:15:42.722Z,11.40
2023-05-16T23:18:15.299Z,11.30
2023-05-16T23:20:48.155Z,11.30
2023-05-16T23:23:20.695Z,11.30
2023-05-16T23:25:53.595Z,11.30
2023-05-16T23:28:26.251Z,11.40
2023-05-16T23:30:59.113Z,11.30
2023-05-16T23:33:31.738Z,11.30
2023-05-16T23:36:05.140Z,11.30
2023-05-16T23:38:37.712Z,11.30
2023-05-16T23:41:10.557Z,11.30
2023-05-16T23:43:43.043Z,11.40
2023-05-16T23:46:15.825Z,11.40
2023-05-16T23:48:48.415Z,11.50
2023-05-16T23:51:21.786Z,11.40
2023-05-16T23:53:54.315Z,11.40
2023-05-16T23:56:27.093Z,11.40
2023-05-16T23:58:59.620Z,11.40
